createdAt,value
2023-03-17T00:02:45.148Z,53.59
2023-03-17T00:06:45.136Z,54.73
2023-03-17T00:10:45.415Z,53.01
2023-03-17T00:14:45.291Z,53.45
2023-03-17T00:18:45.416Z,53.36
2023-03-17T00:22:45.599Z,54.77
2023-03-17T00:26:45.672Z,52.99
2023-03-17T00:30:45.785Z,54.89
2023-03-17T00:34:45.961Z,54.37
2023-03-17T00:38:46.021Z,51.60
2023-03-17T00:42:46.192Z,51.25
2023-03-17T00:46:46.487Z,51.72
2023-03-17T00:50:46.436Z,53.12
2023-03-17T00:54:46.536Z,49.22
2023-03-17T00:58:46.876Z,50.11
2023-03-17T01:02:46.862Z,50.70
2023-03-17T01:06:47.074Z,53.18
2023-03-17T01:10:47.044Z,53.10
2023-03-17T01:14:47.153Z,51.56
2023-03-17T01:18:47.252Z,53.65
2023-03-17T01:22:47.322Z,52.80
2023-03-17T01:26:47.671Z,54.49
2023-03-17T01:30:47.868Z,54.49
2023-03-17T01:34:47.758Z,54.81
2023-03-17T01:38:47.818Z,51.76
2023-03-17T01:42:47.939Z,51.58
2023-03-17T01:46:48.435Z,53.40
2023-03-17T01:50:48.377Z,53.72
2023-03-17T01:54:49.272Z,53.58
2023-03-17T01:58:48.449Z,54.72
2023-03-17T02:02:48.576Z,53.75
2023-03-17T02:06:57.468Z,52.19
2023-03-17T02:10:49.625Z,51.49
2023-03-17T02:14:48.630Z,53.58
2023-03-17T02:18:48.620Z,54.90
2023-03-17T02:22:48.765Z,52.00
2023-03-17T02:26:49.150Z,53.53
2023-03-17T02:30:49.345Z,53.68
2023-03-17T02:34:49.237Z,53.25
2023-03-17T02:38:49.405Z,54.67
2023-03-17T02:42:49.441Z,50.34
2023-03-17T02:46:49.544Z,50.59
2023-03-17T02:50:49.916Z,52.10
2023-03-17T02:54:50.084Z,53.04
2023-03-17T02:58:49.938Z,51.66
2023-03-17T03:02:50.040Z,51.28
2023-03-17T03:06:50.169Z,54.82
2023-03-17T03:10:50.295Z,54.85
2023-03-17T03:14:50.325Z,52.58
2023-03-17T03:18:50.381Z,54.03
2023-03-17T03:22:50.564Z,50.49
2023-03-17T03:26:50.700Z,49.51
2023-03-17T03:30:51.031Z,49.15
2023-03-17T03:34:51.090Z,51.24
2023-03-17T03:38:51.161Z,50.01
2023-03-17T03:42:51.076Z,51.22
2023-03-17T03:46:51.577Z,52.63
2023-03-17T03:50:51.758Z,52.60
2023-03-17T03:54:51.370Z,53.02
2023-03-17T03:58:51.663Z,51.58
2023-03-17T04:02:51.930Z,54.66
2023-03-17T04:06:52.096Z,53.68
2023-03-17T04:10:52.094Z,53.26
2023-03-17T04:14:52.302Z,56.04
2023-03-17T04:18:52.259Z,55.21
2023-03-17T04:22:52.317Z,53.85
2023-03-17T04:26:52.369Z,53.53
2023-03-17T04:30:52.512Z,53.74
2023-03-17T04:34:52.602Z,54.75
2023-03-17T04:38:52.761Z,55.85
2023-03-17T04:42:52.870Z,55.29
2023-03-17T04:46:53.041Z,52.03
2023-03-17T04:50:53.087Z,51.56
2023-03-17T04:54:53.485Z,51.96
2023-03-17T04:58:53.502Z,50.59
2023-03-17T05:02:53.437Z,51.73
2023-03-17T05:06:53.673Z,49.47
2023-03-17T05:10:53.783Z,49.83
2023-03-17T05:14:53.866Z,50.11
2023-03-17T05:18:53.919Z,50.21
2023-03-17T05:22:54.108Z,51.47
2023-03-17T05:26:54.139Z,52.21
2023-03-17T05:30:54.412Z,51.75
2023-03-17T05:34:54.445Z,52.85
2023-03-17T05:38:54.555Z,52.73
2023-03-17T05:42:54.684Z,52.10
2023-03-17T05:46:54.772Z,51.46
2023-03-17T05:50:54.935Z,53.14
2023-03-17T05:54:55.070Z,53.76
2023-03-17T05:58:55.204Z,51.01
2023-03-17T06:02:55.301Z,48.04
2023-03-17T06:06:55.394Z,48.23
2023-03-17T06:10:55.472Z,48.01
2023-03-17T06:14:55.611Z,51.05
2023-03-17T06:18:55.718Z,49.75
2023-03-17T06:23:04.512Z,48.81
2023-03-17T06:26:56.789Z,48.64
2023-03-17T06:30:55.772Z,47.82
2023-03-17T06:34:55.796Z,46.01
2023-03-17T06:38:56.048Z,44.22
2023-03-17T06:42:56.065Z,44.61
2023-03-17T06:46:56.216Z,46.57
2023-03-17T06:50:56.527Z,44.50
2023-03-17T06:54:56.489Z,43.08
2023-03-17T06:58:56.540Z,41.93
2023-03-17T07:02:56.545Z,41.82
2023-03-17T07:06:56.762Z,43.59
2023-03-17T07:10:57.012Z,42.00
2023-03-17T07:14:57.253Z,41.50
2023-03-17T07:18:57.186Z,40.46
2023-03-17T07:22:57.267Z,38.98
2023-03-17T07:26:57.325Z,41.34
2023-03-17T07:30:57.422Z,38.72
2023-03-17T07:34:57.737Z,39.56
2023-03-17T07:38:58.017Z,38.55
2023-03-17T07:42:57.781Z,38.71
2023-03-17T07:46:58.649Z,40.44
2023-03-17T07:51:12.327Z,43.73
